Time;durP1;ratioP1;P1;durP2;ratioP2;P2;SDS_P1;SDS_P2;PMS_P1;PMS_P2;Temp;Humidity;BMP_temperature;BMP_pressure;BME280_temperature;BME280_humidity;BME280_pressure;Samples;Min_cycle;Max_cycle;Signal;HPM_P1;HPM_P2
2023/04/19 00:00:30;;;;;;;10.57;8.10;;;10.30;99.90;;;;;;5007952;28;20040;-87
2023/04/19 00:02:56;;;;;;;11.85;8.38;;;10.30;99.90;;;;;;5013888;28;20042;-86
2023/04/19 00:05:23;;;;;;;12.15;8.15;;;10.30;99.90;;;;;;5013555;28;20037;-87
2023/04/19 00:07:49;;;;;;;10.15;7.38;;;10.30;99.90;;;;;;5009745;28;20027;-87
2023/04/19 00:10:15;;;;;;;12.20;7.90;;;10.30;99.90;;;;;;5006989;28;20030;-87
2023/04/19 00:12:40;;;;;;;12.50;8.27;;;10.30;99.90;;;;;;5008282;28;20034;-87
2023/04/19 00:15:06;;;;;;;10.02;8.05;;;10.30;99.90;;;;;;5012866;28;20045;-87
2023/04/19 00:17:33;;;;;;;11.45;7.28;;;10.30;99.90;;;;;;5017339;28;20443;-87
2023/04/19 00:19:59;;;;;;;13.50;8.32;;;10.30;99.90;;;;;;5010975;28;20038;-88
2023/04/19 00:22:25;;;;;;;12.05;8.27;;;10.30;99.90;;;;;;5012722;28;20030;-87
2023/04/19 00:24:51;;;;;;;12.80;7.78;;;10.30;99.90;;;;;;5013659;28;20482;-87
2023/04/19 00:27:17;;;;;;;9.95;6.78;;;10.30;99.90;;;;;;5014902;28;20040;-87
2023/04/19 00:29:42;;;;;;;12.40;8.15;;;10.30;99.90;;;;;;5003895;28;20498;-87
2023/04/19 00:32:08;;;;;;;11.88;8.20;;;10.20;99.90;;;;;;5013067;28;20388;-87
2023/04/19 00:34:34;;;;;;;12.23;8.73;;;10.20;99.90;;;;;;5010511;28;20111;-87
2023/04/19 00:36:59;;;;;;;11.02;8.38;;;10.20;99.90;;;;;;5011798;28;20058;-87
2023/04/19 00:39:25;;;;;;;11.68;8.20;;;10.20;99.90;;;;;;5009787;28;20125;-87
2023/04/19 00:41:51;;;;;;;12.27;8.25;;;10.20;99.90;;;;;;5012547;28;20053;-88
2023/04/19 00:44:17;;;;;;;13.68;9.20;;;10.20;99.90;;;;;;5012912;28;20034;-87
2023/04/19 00:46:42;;;;;;;14.85;8.75;;;10.30;99.90;;;;;;5013017;28;20036;-87
2023/04/19 00:49:08;;;;;;;11.15;8.32;;;10.20;99.90;;;;;;5014476;28;20052;-87
2023/04/19 00:51:35;;;;;;;12.00;8.57;;;10.20;99.90;;;;;;5013543;28;20037;-88
2023/04/19 00:54:05;;;;;;;11.32;8.20;;;10.20;99.90;;;;;;5000971;28;20569;-87
2023/04/19 00:56:33;;;;;;;10.68;7.50;;;10.30;99.90;;;;;;5013577;28;20091;-87
2023/04/19 00:58:58;;;;;;;13.38;9.52;;;10.20;99.90;;;;;;5014310;28;20379;-87
2023/04/19 01:01:24;;;;;;;12.52;8.20;;;10.20;99.90;;;;;;5014083;28;20029;-87
2023/04/19 01:03:50;;;;;;;14.35;9.20;;;10.30;99.90;;;;;;5007794;28;20409;-87
2023/04/19 01:06:15;;;;;;;12.57;8.20;;;10.20;99.90;;;;;;5012981;28;20033;-88
2023/04/19 01:08:41;;;;;;;12.60;8.93;;;10.20;99.90;;;;;;5005749;28;20030;-88
2023/04/19 01:11:07;;;;;;;12.07;8.32;;;10.30;99.90;;;;;;5012276;28;20113;-87
2023/04/19 01:13:33;;;;;;;13.13;7.82;;;10.20;99.90;;;;;;5009812;28;20026;-87
2023/04/19 01:15:59;;;;;;;12.93;8.82;;;10.20;99.90;;;;;;5005406;28;20036;-88
2023/04/19 01:18:28;;;;;;;13.98;8.90;;;10.20;99.90;;;;;;5004007;28;20113;-86
2023/04/19 01:20:53;;;;;;;17.88;9.35;;;10.20;99.90;;;;;;5012682;28;20034;-87
2023/04/19 01:23:19;;;;;;;12.32;9.18;;;10.20;99.90;;;;;;5011545;28;20056;-88
2023/04/19 01:25:45;;;;;;;12.77;8.52;;;10.10;99.90;;;;;;5011105;28;20029;-87
2023/04/19 01:28:10;;;;;;;12.27;8.38;;;10.10;99.90;;;;;;5007432;28;20081;-87
2023/04/19 01:30:36;;;;;;;13.43;9.85;;;10.10;99.90;;;;;;5010456;28;20383;-87
2023/04/19 01:33:02;;;;;;;12.43;8.95;;;10.10;99.90;;;;;;5014026;28;20026;-87
2023/04/19 01:35:27;;;;;;;14.40;8.93;;;10.10;99.90;;;;;;5013465;28;20042;-87
2023/04/19 01:37:55;;;;;;;12.27;8.55;;;10.10;99.90;;;;;;5001681;28;20026;-87
2023/04/19 01:40:23;;;;;;;15.73;10.50;;;10.10;99.90;;;;;;5009402;28;20089;-87
2023/04/19 01:42:49;;;;;;;15.38;9.85;;;10.10;99.90;;;;;;5010374;28;20032;-87
2023/04/19 01:45:14;;;;;;;16.80;10.68;;;10.10;99.90;;;;;;5012358;28;20078;-87
2023/04/19 01:47:40;;;;;;;14.93;10.43;;;10.10;99.90;;;;;;5008748;28;20511;-87
2023/04/19 01:50:06;;;;;;;14.30;10.60;;;10.10;99.90;;;;;;5006079;28;20425;-87
2023/04/19 01:52:32;;;;;;;15.27;9.88;;;10.00;99.90;;;;;;5011292;28;20398;-87
2023/04/19 01:54:57;;;;;;;12.27;9.65;;;10.10;99.90;;;;;;5011999;28;20053;-87
2023/04/19 01:57:23;;;;;;;14.00;9.75;;;10.00;99.90;;;;;;5011649;28;20021;-87
2023/04/19 01:59:49;;;;;;;15.18;10.20;;;10.00;99.90;;;;;;5002719;28;20042;-87
2023/04/19 02:02:14;;;;;;;14.98;10.40;;;10.00;99.90;;;;;;5009467;28;20095;-87
2023/04/19 02:04:40;;;;;;;16.52;10.32;;;10.00;99.90;;;;;;5009600;28;20058;-88
2023/04/19 02:07:06;;;;;;;15.00;10.45;;;10.00;99.90;;;;;;5010408;28;20018;-87
2023/04/19 02:09:35;;;;;;;16.33;11.10;;;10.00;99.90;;;;;;5010231;28;20037;-87
2023/04/19 02:12:00;;;;;;;14.65;10.38;;;10.00;99.90;;;;;;5002722;28;20490;-86
2023/04/19 02:14:26;;;;;;;15.40;10.63;;;9.90;99.90;;;;;;5009937;28;20038;-87
2023/04/19 02:16:51;;;;;;;14.05;10.35;;;9.90;99.90;;;;;;5011654;28;20030;-87
2023/04/19 02:19:17;;;;;;;15.40;10.90;;;10.00;99.90;;;;;;5011508;28;20034;-86
2023/04/19 02:21:42;;;;;;;16.30;11.15;;;9.90;99.90;;;;;;5011856;28;20029;-88
2023/04/19 02:24:08;;;;;;;15.23;10.38;;;9.90;99.90;;;;;;5008478;28;20093;-88
2023/04/19 02:26:33;;;;;;;14.90;9.82;;;9.90;99.90;;;;;;5018165;28;20122;-87
2023/04/19 02:28:59;;;;;;;16.27;11.48;;;9.90;99.90;;;;;;5006202;28;20053;-87
2023/04/19 02:31:25;;;;;;;16.13;11.02;;;9.90;99.90;;;;;;5010406;28;20478;-88
2023/04/19 02:33:50;;;;;;;13.02;9.98;;;9.90;99.90;;;;;;5008694;28;20399;-87
2023/04/19 02:36:16;;;;;;;14.95;10.02;;;9.90;99.90;;;;;;5004291;28;20038;-87
2023/04/19 02:38:41;;;;;;;16.35;10.57;;;9.90;99.90;;;;;;5006437;28;20032;-87
2023/04/19 02:41:07;;;;;;;16.58;10.63;;;9.90;99.90;;;;;;5005345;28;20068;-86
2023/04/19 02:43:32;;;;;;;15.35;10.30;;;9.90;99.90;;;;;;5012285;28;20030;-87
2023/04/19 02:45:58;;;;;;;15.02;8.63;;;9.80;99.90;;;;;;5011366;28;20394;-87
2023/04/19 02:48:23;;;;;;;15.70;9.95;;;9.80;99.90;;;;;;5009225;28;20372;-87
2023/04/19 02:50:49;;;;;;;15.13;10.15;;;9.80;99.90;;;;;;5009513;28;20028;-87
2023/04/19 02:53:14;;;;;;;16.05;9.88;;;9.80;99.90;;;;;;5003828;28;20471;-87
2023/04/19 02:55:40;;;;;;;16.70;9.05;;;9.70;99.90;;;;;;5012157;28;20049;-87
2023/04/19 02:58:05;;;;;;;15.77;9.95;;;9.70;99.90;;;;;;4999006;28;20033;-87
2023/04/19 03:00:31;;;;;;;13.30;9.77;;;9.70;99.90;;;;;;5007530;28;20103;-87
2023/04/19 03:02:57;;;;;;;13.60;8.85;;;9.70;99.90;;;;;;5009602;28;20124;-87
2023/04/19 03:05:22;;;;;;;14.52;9.38;;;9.70;99.90;;;;;;5006063;28;20509;-87
2023/04/19 03:07:48;;;;;;;12.60;9.30;;;9.70;99.90;;;;;;5011452;28;20057;-88
2023/04/19 03:10:14;;;;;;;13.32;9.32;;;9.70;99.90;;;;;;5010699;28;20549;-88
2023/04/19 03:12:39;;;;;;;16.10;10.10;;;9.70;99.90;;;;;;5004385;28;20026;-87
2023/04/19 03:15:07;;;;;;;13.85;9.93;;;9.70;99.90;;;;;;5008926;28;20067;-88
2023/04/19 03:17:33;;;;;;;12.10;8.52;;;9.60;99.90;;;;;;5009947;28;20048;-87
2023/04/19 03:19:58;;;;;;;13.40;9.70;;;9.50;99.90;;;;;;5010667;28;20487;-87
2023/04/19 03:22:24;;;;;;;13.50;8.93;;;9.50;99.90;;;;;;5010025;28;20030;-86
2023/04/19 03:24:49;;;;;;;15.90;9.00;;;9.40;99.90;;;;;;5005425;28;20101;-87
2023/04/19 03:27:15;;;;;;;14.82;9.45;;;9.40;99.90;;;;;;4997697;28;20427;-86
2023/04/19 03:29:40;;;;;;;15.13;8.80;;;9.30;99.90;;;;;;5011503;28;20513;-87
2023/04/19 03:32:06;;;;;;;14.60;9.05;;;9.30;99.90;;;;;;5004492;28;20027;-87
2023/04/19 03:34:32;;;;;;;14.15;9.48;;;9.30;99.90;;;;;;5008849;28;20045;-87
2023/04/19 03:36:58;;;;;;;13.38;8.63;;;9.30;99.90;;;;;;5011567;28;20029;-86
2023/04/19 03:39:23;;;;;;;12.48;8.25;;;9.20;99.90;;;;;;5009095;28;20030;-87
2023/04/19 03:41:49;;;;;;;14.13;8.95;;;9.20;99.90;;;;;;5006291;28;20033;-88
2023/04/19 03:44:15;;;;;;;15.15;9.85;;;9.20;99.90;;;;;;5002803;28;20030;-86
2023/04/19 03:46:41;;;;;;;15.50;9.65;;;9.20;99.90;;;;;;5010987;28;20580;-87
2023/04/19 03:49:06;;;;;;;11.75;7.93;;;9.30;99.90;;;;;;5010964;28;20030;-87
2023/04/19 03:51:32;;;;;;;13.80;9.57;;;9.20;99.90;;;;;;5009696;28;20072;-88
2023/04/19 03:53:57;;;;;;;15.18;9.82;;;9.20;99.90;;;;;;5010714;28;20037;-87
2023/04/19 03:56:23;;;;;;;15.10;8.88;;;9.20;99.90;;;;;;5011112;28;20049;-88
2023/04/19 03:58:51;;;;;;;14.52;9.07;;;9.20;99.90;;;;;;5012399;28;20509;-87
2023/04/19 04:01:21;;;;;;;11.20;7.20;;;9.20;99.90;;;;;;5009220;28;20046;-87
2023/04/19 04:03:47;;;;;;;13.00;8.25;;;9.20;99.90;;;;;;5009116;28;20077;-86
2023/04/19 04:06:12;;;;;;;14.70;9.02;;;9.20;99.90;;;;;;5010236;28;20072;-87
2023/04/19 04:08:38;;;;;;;12.15;7.43;;;9.10;99.90;;;;;;5010835;28;20029;-88
2023/04/19 04:11:04;;;;;;;14.32;8.27;;;9.20;99.90;;;;;;5011029;28;20402;-88
2023/04/19 04:13:29;;;;;;;10.00;7.25;;;9.10;99.90;;;;;;5011209;28;20065;-87
2023/04/19 04:15:55;;;;;;;9.90;6.93;;;9.10;99.90;;;;;;5010487;28;20026;-87
2023/04/19 04:18:20;;;;;;;11.05;7.38;;;9.10;99.90;;;;;;4995678;28;20645;-87
2023/04/19 04:20:47;;;;;;;12.77;7.47;;;9.20;99.90;;;;;;4999079;28;20478;-87
2023/04/19 04:23:13;;;;;;;10.57;6.53;;;9.20;99.90;;;;;;5007919;28;20645;-87
2023/04/19 04:25:38;;;;;;;10.23;6.93;;;9.10;99.90;;;;;;5008472;28;20029;-87
2023/04/19 04:28:04;;;;;;;9.40;6.63;;;9.10;99.90;;;;;;5006565;28;20343;-87
2023/04/19 04:30:30;;;;;;;10.52;6.75;;;9.00;99.90;;;;;;5013714;28;20026;-87
2023/04/19 04:32:57;;;;;;;10.80;7.07;;;9.00;99.90;;;;;;5013102;28;20041;-87
2023/04/19 04:35:23;;;;;;;8.25;6.13;;;8.90;99.90;;;;;;5009249;28;20129;-87
2023/04/19 04:37:48;;;;;;;7.97;6.03;;;8.90;99.90;;;;;;5015010;28;20115;-87
2023/04/19 04:40:14;;;;;;;9.48;6.10;;;8.90;99.90;;;;;;5012834;28;20030;-87
2023/04/19 04:42:41;;;;;;;11.40;6.10;;;8.80;99.90;;;;;;5012965;28;20434;-87
2023/04/19 04:45:09;;;;;;;12.07;5.97;;;8.80;99.90;;;;;;5014031;28;20119;-87
2023/04/19 04:47:35;;;;;;;10.45;6.15;;;8.70;99.90;;;;;;5012780;28;20113;-87
2023/04/19 04:50:01;;;;;;;9.27;5.95;;;8.70;99.90;;;;;;5014024;28;20105;-87
2023/04/19 04:52:27;;;;;;;9.68;5.80;;;8.70;99.90;;;;;;5012793;28;20037;-87
2023/04/19 04:54:52;;;;;;;11.70;6.15;;;8.70;99.90;;;;;;5010398;28;20034;-87
2023/04/19 04:57:18;;;;;;;10.00;6.13;;;8.70;99.90;;;;;;5008302;28;20367;-86
2023/04/19 04:59:45;;;;;;;10.23;6.75;;;8.70;99.90;;;;;;5003833;28;20508;-86
2023/04/19 05:02:10;;;;;;;8.70;5.97;;;8.70;99.90;;;;;;4999764;28;20018;-87
2023/04/19 05:04:36;;;;;;;10.70;6.07;;;8.70;99.90;;;;;;5006672;28;20046;-87
2023/04/19 05:07:01;;;;;;;10.52;6.15;;;8.80;99.90;;;;;;5007756;28;20030;-87
2023/04/19 05:09:27;;;;;;;7.90;5.10;;;8.80;99.90;;;;;;5002662;28;20100;-87
2023/04/19 05:11:53;;;;;;;9.77;6.07;;;8.80;99.90;;;;;;5004692;28;20053;-87
2023/04/19 05:14:18;;;;;;;11.10;5.65;;;8.80;99.90;;;;;;5007606;28;20045;-87
2023/04/19 05:16:44;;;;;;;10.82;5.50;;;8.80;99.90;;;;;;5004821;28;20045;-87
2023/04/19 05:19:10;;;;;;;12.32;5.88;;;8.80;99.90;;;;;;5010580;28;20132;-86
2023/04/19 05:21:35;;;;;;;7.75;5.32;;;8.70;99.90;;;;;;5009303;28;20025;-87
2023/04/19 05:24:01;;;;;;;9.20;5.72;;;8.80;99.90;;;;;;5005550;28;20034;-88
2023/04/19 05:26:26;;;;;;;10.88;5.75;;;8.70;99.90;;;;;;5006232;28;20037;-88
2023/04/19 05:28:52;;;;;;;7.55;5.07;;;8.70;99.90;;;;;;5007144;28;20128;-87
2023/04/19 05:31:19;;;;;;;11.82;6.07;;;8.70;99.90;;;;;;5008519;28;20134;-87
2023/04/19 05:33:45;;;;;;;9.32;4.63;;;8.70;99.90;;;;;;5001372;28;20037;-87
2023/04/19 05:36:10;;;;;;;10.52;5.45;;;8.70;99.90;;;;;;5008079;28;20034;-87
2023/04/19 05:38:36;;;;;;;8.65;4.75;;;8.70;99.90;;;;;;5002233;28;20394;-87
2023/04/19 05:41:02;;;;;;;7.55;4.88;;;8.80;99.90;;;;;;5009352;28;20513;-87
2023/04/19 05:43:28;;;;;;;9.95;5.15;;;8.80;99.90;;;;;;5012190;28;20030;-86
2023/04/19 05:45:54;;;;;;;7.03;4.30;;;8.80;99.90;;;;;;5013319;28;20052;-87
2023/04/19 05:48:19;;;;;;;12.43;5.22;;;8.80;99.90;;;;;;5010994;28;20069;-86
2023/04/19 05:50:45;;;;;;;9.43;4.97;;;8.90;99.90;;;;;;5013370;28;20056;-87
2023/04/19 05:53:11;;;;;;;6.75;4.70;;;8.90;99.90;;;;;;5008924;28;20030;-86
2023/04/19 05:55:36;;;;;;;8.50;5.05;;;8.90;99.90;;;;;;5007563;28;20040;-86
2023/04/19 05:58:02;;;;;;;10.30;4.55;;;9.00;99.90;;;;;;5007089;28;20054;-87
2023/04/19 06:00:27;;;;;;;7.65;5.07;;;9.00;99.90;;;;;;5004102;28;20053;-87
2023/04/19 06:02:53;;;;;;;7.85;4.47;;;9.10;99.90;;;;;;5003665;28;20410;-88
2023/04/19 06:05:18;;;;;;;9.90;4.57;;;9.10;99.90;;;;;;5009811;28;20037;-87
2023/04/19 06:07:44;;;;;;;8.48;4.60;;;9.20;99.90;;;;;;5012765;28;20114;-87
2023/04/19 06:10:10;;;;;;;6.38;3.95;;;9.20;99.90;;;;;;5013026;28;20034;-87
2023/04/19 06:12:35;;;;;;;9.27;4.90;;;9.20;99.90;;;;;;5013244;28;20025;-87
2023/04/19 06:15:01;;;;;;;7.15;4.68;;;9.30;99.90;;;;;;5008380;28;20060;-87
2023/04/19 06:17:27;;;;;;;6.93;4.05;;;9.30;99.90;;;;;;5011817;28;20037;-87
2023/04/19 06:19:54;;;;;;;9.05;4.13;;;9.40;99.90;;;;;;5012189;28;20121;-87
2023/04/19 06:22:20;;;;;;;7.55;4.70;;;9.40;99.90;;;;;;5004622;28;20027;-87
2023/04/19 06:24:46;;;;;;;7.68;4.18;;;9.50;99.90;;;;;;5011027;28;20026;-88
2023/04/19 06:27:12;;;;;;;8.05;4.07;;;9.60;99.90;;;;;;5008742;28;20033;-87
2023/04/19 06:29:38;;;;;;;9.00;4.32;;;9.60;99.90;;;;;;5011113;28;20055;-88
2023/04/19 06:32:04;;;;;;;8.82;4.07;;;9.70;99.90;;;;;;5003494;28;20026;-88
2023/04/19 06:34:29;;;;;;;7.03;3.95;;;9.70;99.90;;;;;;5009397;28;20033;-89
2023/04/19 06:36:55;;;;;;;8.57;4.80;;;9.80;99.90;;;;;;5006112;28;20030;-89
2023/04/19 06:39:20;;;;;;;6.70;3.17;;;9.90;99.90;;;;;;5008535;28;20113;-88
2023/04/19 06:41:46;;;;;;;6.03;3.67;;;9.90;99.90;;;;;;5018013;28;20025;-87
2023/04/19 06:44:12;;;;;;;8.18;3.75;;;10.00;99.90;;;;;;5009634;28;20029;-88
2023/04/19 06:46:37;;;;;;;7.18;3.40;;;10.00;99.90;;;;;;5012664;28;20034;-88
2023/04/19 06:49:03;;;;;;;6.47;3.53;;;10.00;99.90;;;;;;5005563;28;20509;-89
2023/04/19 06:51:29;;;;;;;7.15;3.58;;;10.00;99.90;;;;;;5010098;28;20066;-88
2023/04/19 06:53:54;;;;;;;7.18;3.50;;;10.10;99.90;;;;;;5007601;28;20025;-88
2023/04/19 06:56:44;;;;;;;4.60;3.17;;;10.10;99.90;;;;;;5009624;28;20038;-88
2023/04/19 06:59:10;;;;;;;6.22;3.90;;;10.10;99.90;;;;;;5015379;28;20076;-88
2023/04/19 07:01:36;;;;;;;4.22;2.70;;;10.20;99.90;;;;;;5012021;28;20030;-87
2023/04/19 07:04:02;;;;;;;5.05;3.13;;;10.20;99.90;;;;;;5011788;28;20140;-88
2023/04/19 07:06:28;;;;;;;11.75;3.85;;;10.30;99.90;;;;;;5011626;28;20482;-88
2023/04/19 07:08:54;;;;;;;6.75;3.03;;;10.40;99.90;;;;;;5012171;28;20029;-87
2023/04/19 07:11:19;;;;;;;5.65;2.92;;;10.50;99.90;;;;;;5006363;28;20124;-88
2023/04/19 07:13:45;;;;;;;7.00;3.30;;;10.50;99.90;;;;;;5004078;28;20026;-88
2023/04/19 07:16:12;;;;;;;4.97;2.83;;;10.60;99.90;;;;;;5024542;28;20022;-89
2023/04/19 07:18:37;;;;;;;6.07;3.05;;;10.60;99.90;;;;;;5004117;28;20025;-88
2023/04/19 07:21:03;;;;;;;6.93;2.75;;;10.70;99.90;;;;;;5005283;28;20079;-87
2023/04/19 07:23:29;;;;;;;5.30;3.38;;;10.70;99.90;;;;;;5001545;28;20394;-85
2023/04/19 07:25:55;;;;;;;6.40;3.55;;;10.80;99.90;;;;;;5004343;28;20025;-88
2023/04/19 07:28:20;;;;;;;4.57;2.33;;;10.80;99.50;;;;;;5008543;28;20021;-88
2023/04/19 07:30:46;;;;;;;3.35;2.22;;;10.80;98.10;;;;;;5005348;28;20134;-87
2023/04/19 07:33:11;;;;;;;6.03;3.00;;;10.80;98.10;;;;;;5005360;28;20041;-87
2023/04/19 07:35:40;;;;;;;4.70;2.95;;;10.90;97.80;;;;;;5003052;28;20042;-87
2023/04/19 07:38:06;;;;;;;6.78;2.78;;;11.00;96.60;;;;;;4996009;28;20026;-86
2023/04/19 07:40:31;;;;;;;7.70;2.38;;;11.10;97.00;;;;;;5002135;28;20034;-89
2023/04/19 07:42:57;;;;;;;5.68;2.60;;;11.10;94.50;;;;;;5001545;28;20561;-88
2023/04/19 07:45:23;;;;;;;7.25;2.85;;;11.10;94.00;;;;;;5001429;28;20417;-88
2023/04/19 07:47:48;;;;;;;5.50;2.10;;;11.20;94.20;;;;;;4997102;28;20034;-89
2023/04/19 07:50:14;;;;;;;4.25;2.17;;;11.20;93.80;;;;;;4996262;28;20465;-88
2023/04/19 07:52:40;;;;;;;4.60;1.92;;;11.20;92.10;;;;;;4999826;28;20022;-88
2023/04/19 07:55:06;;;;;;;6.65;1.85;;;11.20;92.00;;;;;;5002889;28;20124;-87
2023/04/19 07:57:33;;;;;;;3.47;1.60;;;11.20;91.20;;;;;;5004560;28;20058;-88
2023/04/19 07:59:59;;;;;;;4.70;1.80;;;11.20;91.00;;;;;;5007011;28;20104;-88
2023/04/19 08:02:26;;;;;;;3.40;1.38;;;11.30;89.40;;;;;;5007459;28;20121;-87
2023/04/19 08:04:52;;;;;;;4.28;1.60;;;11.30;88.90;;;;;;5009583;28;20039;-87
2023/04/19 08:07:17;;;;;;;5.00;1.50;;;11.30;89.10;;;;;;5001507;28;20029;-88
2023/04/19 08:09:43;;;;;;;3.30;1.67;;;11.40;88.30;;;;;;5011912;28;20097;-88
2023/04/19 08:12:08;;;;;;;6.10;1.88;;;11.50;88.50;;;;;;5003774;28;20099;-86
2023/04/19 08:14:34;;;;;;;4.38;1.73;;;11.50;87.40;;;;;;5004679;28;20034;-88
2023/04/19 08:16:59;;;;;;;5.82;1.73;;;11.50;87.40;;;;;;5001324;28;20471;-86
2023/04/19 08:19:25;;;;;;;5.10;1.45;;;11.60;88.20;;;;;;5008708;28;20029;-87
2023/04/19 08:21:50;;;;;;;10.93;1.90;;;11.70;88.20;;;;;;5009579;28;20113;-88
2023/04/19 08:24:16;;;;;;;3.58;1.50;;;11.70;86.40;;;;;;5014100;28;20156;-86
2023/04/19 08:26:41;;;;;;;2.67;1.30;;;11.60;86.20;;;;;;5007273;28;20395;-87
2023/04/19 08:29:07;;;;;;;8.18;1.95;;;11.60;85.90;;;;;;5003239;28;20026;-88
2023/04/19 08:31:33;;;;;;;3.70;1.48;;;11.60;86.30;;;;;;5010156;28;20107;-88
2023/04/19 08:33:59;;;;;;;3.55;1.50;;;11.60;87.00;;;;;;5001489;28;20037;-88
2023/04/19 08:36:26;;;;;;;4.35;1.63;;;11.70;86.80;;;;;;5005852;28;20482;-87
2023/04/19 08:38:52;;;;;;;5.38;1.60;;;11.70;86.00;;;;;;5002696;28;20026;-87
2023/04/19 08:41:18;;;;;;;4.35;1.38;;;11.80;86.70;;;;;;5005588;28;20478;-88
2023/04/19 08:43:46;;;;;;;4.35;1.17;;;11.90;84.00;;;;;;5007164;28;20026;-89
2023/04/19 08:46:12;;;;;;;4.80;1.17;;;11.90;83.30;;;;;;5005347;28;20117;-87
2023/04/19 08:48:39;;;;;;;5.10;1.40;;;11.90;81.00;;;;;;5004855;28;20057;-85
2023/04/19 08:51:05;;;;;;;2.40;1.15;;;11.90;81.10;;;;;;5010493;28;20026;-88
2023/04/19 08:53:33;;;;;;;3.30;1.35;;;12.00;81.70;;;;;;5006773;28;20033;-87
2023/04/19 08:56:00;;;;;;;6.30;1.58;;;12.00;81.90;;;;;;5011178;28;20030;-88
2023/04/19 08:58:28;;;;;;;6.15;1.48;;;12.00;80.60;;;;;;5008462;28;20030;-88
2023/04/19 09:00:54;;;;;;;3.42;1.27;;;12.00;80.50;;;;;;5006642;28;20032;-88
2023/04/19 09:03:19;;;;;;;3.25;1.17;;;12.00;79.30;;;;;;5006602;28;20073;-87
2023/04/19 09:05:45;;;;;;;5.38;1.10;;;11.90;79.30;;;;;;5006713;28;20113;-88
2023/04/19 09:08:27;;;;;;;4.70;1.13;;;11.90;80.00;;;;;;5020465;28;20026;-87
2023/04/19 09:11:00;;;;;;;2.77;1.03;;;12.00;80.20;;;;;;4998834;28;20079;-88
2023/04/19 09:13:27;;;;;;;2.72;1.00;;;12.00;79.20;;;;;;4998592;28;20053;-88
2023/04/19 09:15:55;;;;;;;3.35;0.85;;;12.10;77.40;;;;;;5002584;28;20133;-88
2023/04/19 09:18:23;;;;;;;3.67;0.82;;;12.10;76.30;;;;;;5003542;28;20030;-87
2023/04/19 09:20:49;;;;;;;6.32;1.05;;;12.10;75.30;;;;;;5028567;28;20033;-87
2023/04/19 09:23:17;;;;;;;2.70;0.90;;;12.10;75.00;;;;;;5003412;28;20120;-87
2023/04/19 09:25:59;;;;;;;2.47;0.70;;;12.10;75.50;;;;;;5006811;28;20045;-87
2023/04/19 09:28:25;;;;;;;3.67;0.70;;;12.10;74.30;;;;;;5001416;28;20026;-87
2023/04/19 09:30:51;;;;;;;1.60;0.80;;;12.10;74.80;;;;;;5002863;28;20032;-86
2023/04/19 09:33:33;;;;;;;5.40;0.98;;;12.00;75.50;;;;;;5007667;28;20479;-87
2023/04/19 09:36:00;;;;;;;3.60;0.80;;;12.10;75.40;;;;;;5025673;28;20049;-86
2023/04/19 09:38:26;;;;;;;5.10;0.73;;;12.20;74.70;;;;;;5008790;28;20125;-88
2023/04/19 09:40:51;;;;;;;2.00;0.60;;;12.30;75.60;;;;;;5001003;28;20030;-86
2023/04/19 09:43:27;;;;;;;0.98;0.40;;;12.40;74.50;;;;;;5000233;28;20041;-87
2023/04/19 09:45:52;;;;;;;1.35;0.50;;;12.50;72.80;;;;;;5005925;28;20029;-87
2023/04/19 09:48:18;;;;;;;1.42;0.50;;;12.50;69.20;;;;;;5002298;28;20486;-86
2023/04/19 09:50:50;;;;;;;4.70;0.50;;;12.50;70.90;;;;;;5004063;28;20513;-88
2023/04/19 09:53:17;;;;;;;2.30;0.75;;;12.60;69.00;;;;;;4996199;28;20502;-87
2023/04/19 09:55:46;;;;;;;1.00;0.40;;;12.60;69.00;;;;;;5002377;28;20042;-86
2023/04/19 09:58:12;;;;;;;3.65;0.50;;;12.60;68.00;;;;;;5014714;28;20027;-89
2023/04/19 10:00:40;;;;;;;1.52;0.57;;;12.50;67.60;;;;;;4995948;28;20030;-88
2023/04/19 10:03:08;;;;;;;3.40;0.50;;;12.50;68.60;;;;;;5002020;28;20371;-87
2023/04/19 10:05:35;;;;;;;2.83;0.60;;;12.60;69.20;;;;;;5018180;28;20037;-86
2023/04/19 10:08:02;;;;;;;2.00;0.50;;;12.70;69.90;;;;;;5003474;28;20037;-87
2023/04/19 10:10:29;;;;;;;1.92;0.60;;;12.80;70.40;;;;;;5004823;28;20478;-87
2023/04/19 10:12:57;;;;;;;2.95;0.63;;;12.90;70.00;;;;;;5006236;28;20030;-88
2023/04/19 10:15:23;;;;;;;3.03;0.52;;;12.90;69.50;;;;;;5005681;28;20037;-87
2023/04/19 10:17:48;;;;;;;4.28;0.68;;;12.80;68.00;;;;;;5007396;28;20401;-88
2023/04/19 10:20:23;;;;;;;4.78;0.70;;;12.80;68.00;;;;;;5004078;28;20034;-86
2023/04/19 10:22:48;;;;;;;2.85;0.57;;;12.70;67.30;;;;;;5006650;28;20026;-87
2023/04/19 10:25:15;;;;;;;2.72;0.60;;;12.60;66.90;;;;;;5001911;28;20049;-87
2023/04/19 10:27:47;;;;;;;3.55;0.55;;;12.50;67.10;;;;;;5006330;28;20026;-88
2023/04/19 10:30:25;;;;;;;2.08;0.60;;;12.60;67.20;;;;;;5001962;28;20491;-88
2023/04/19 10:32:56;;;;;;;4.63;0.68;;;12.60;68.10;;;;;;5015384;28;20027;-88
2023/04/19 10:35:31;;;;;;;3.55;0.60;;;12.80;68.50;;;;;;5006708;28;20068;-87
2023/04/19 10:38:05;;;;;;;1.25;0.50;;;13.10;69.30;;;;;;5006377;28;20122;-86
2023/04/19 10:40:59;;;;;;;1.75;0.80;;;13.20;68.80;;;;;;5011137;28;20041;-88
2023/04/19 10:43:29;;;;;;;1.70;0.50;;;13.30;67.30;;;;;;5012821;28;20030;-88
2023/04/19 10:46:00;;;;;;;1.38;0.52;;;13.20;65.90;;;;;;5024501;28;20072;-86
2023/04/19 10:48:26;;;;;;;2.35;0.70;;;13.10;65.80;;;;;;5008204;28;20025;-88
2023/04/19 10:50:59;;;;;;;2.90;0.50;;;13.00;66.20;;;;;;5008492;28;20112;-86
2023/04/19 10:53:57;;;;;;;4.15;0.60;;;13.10;67.10;;;;;;5007336;28;20026;-88
2023/04/19 10:56:31;;;;;;;2.33;0.50;;;13.10;64.60;;;;;;5008599;28;20042;-88
2023/04/19 10:59:00;;;;;;;1.35;0.50;;;13.10;64.20;;;;;;5007398;28;20030;-88
2023/04/19 11:01:33;;;;;;;3.55;0.70;;;13.10;64.00;;;;;;4996666;28;20037;-87
2023/04/19 11:03:59;;;;;;;2.78;1.25;;;13.20;64.50;;;;;;5002654;28;20054;-88
2023/04/19 11:06:26;;;;;;;15.82;0.80;;;13.20;64.00;;;;;;5002867;28;20026;-88
2023/04/19 11:08:53;;;;;;;3.70;0.68;;;13.30;62.90;;;;;;5011617;28;20037;-87
2023/04/19 11:11:22;;;;;;;3.17;0.90;;;13.30;62.80;;;;;;5010861;28;20029;-87
2023/04/19 11:13:48;;;;;;;4.00;0.80;;;13.30;62.30;;;;;;5005321;28;20037;-88
2023/04/19 11:16:13;;;;;;;3.63;0.80;;;13.30;61.10;;;;;;4998112;28;20042;-88
2023/04/19 11:18:39;;;;;;;4.70;0.88;;;13.40;61.50;;;;;;5002822;28;20017;-87
2023/04/19 11:21:05;;;;;;;3.88;0.70;;;13.50;61.40;;;;;;5020319;28;20034;-87
2023/04/19 11:23:30;;;;;;;1.83;0.60;;;13.60;61.70;;;;;;5007730;28;20101;-87
2023/04/19 11:25:56;;;;;;;2.40;0.55;;;13.60;61.70;;;;;;5007150;28;20030;-88
2023/04/19 11:28:21;;;;;;;4.35;0.60;;;13.70;62.10;;;;;;5007293;28;20045;-88
2023/04/19 11:30:48;;;;;;;3.25;0.70;;;13.80;61.30;;;;;;5011291;28;20446;-88
2023/04/19 11:33:14;;;;;;;2.88;0.80;;;13.90;59.80;;;;;;5007201;28;20098;-87
2023/04/19 11:35:42;;;;;;;2.22;0.70;;;13.90;59.50;;;;;;4998673;28;20061;-88
2023/04/19 11:38:07;;;;;;;3.70;1.00;;;13.90;58.40;;;;;;5022012;28;20030;-87
2023/04/19 11:40:33;;;;;;;3.72;0.60;;;14.00;59.50;;;;;;5004461;28;20359;-88
2023/04/19 11:43:01;;;;;;;2.20;0.55;;;14.00;58.60;;;;;;5008316;28;20475;-88
2023/04/19 11:45:28;;;;;;;5.45;0.90;;;14.00;57.10;;;;;;5015941;28;20025;-88
2023/04/19 11:47:55;;;;;;;2.25;0.75;;;14.00;57.20;;;;;;5015194;28;20037;-88
2023/04/19 11:50:43;;;;;;;1.88;0.73;;;14.00;56.80;;;;;;5018630;28;20057;-88
2023/04/19 11:53:13;;;;;;;1.73;0.75;;;14.10;57.40;;;;;;5021314;28;20517;-87
2023/04/19 11:55:42;;;;;;;4.82;0.70;;;14.20;57.10;;;;;;5019866;28;20037;-88
2023/04/19 11:58:10;;;;;;;3.13;0.60;;;14.30;56.90;;;;;;5011822;28;20037;-87
2023/04/19 12:00:36;;;;;;;3.10;0.55;;;14.40;55.20;;;;;;5014366;28;20088;-88
2023/04/19 12:03:03;;;;;;;3.22;0.70;;;14.40;54.20;;;;;;5014135;28;20037;-88
2023/04/19 12:05:29;;;;;;;2.85;0.50;;;14.40;52.90;;;;;;5017500;28;20034;-88
2023/04/19 12:08:05;;;;;;;3.50;0.98;;;14.40;53.50;;;;;;5014108;28;20081;-88
2023/04/19 12:10:31;;;;;;;2.00;0.70;;;14.40;52.80;;;;;;5016045;28;20116;-88
2023/04/19 12:12:57;;;;;;;1.67;0.60;;;14.50;52.40;;;;;;5000023;28;20030;-88
2023/04/19 12:15:39;;;;;;;2.33;0.70;;;14.60;53.00;;;;;;5016795;28;20049;-88
2023/04/19 12:18:04;;;;;;;2.22;0.57;;;14.70;53.00;;;;;;5025872;28;20065;-88
2023/04/19 12:20:31;;;;;;;2.83;0.70;;;14.80;52.60;;;;;;5019002;28;20033;-86
2023/04/19 12:22:57;;;;;;;4.13;1.40;;;14.80;51.70;;;;;;5019753;28;20040;-88
2023/04/19 12:25:27;;;;;;;6.32;1.00;;;14.80;51.80;;;;;;5018266;28;20113;-88
2023/04/19 12:27:53;;;;;;;2.25;0.70;;;14.90;51.70;;;;;;5016672;28;20076;-88
2023/04/19 12:30:18;;;;;;;2.97;1.10;;;15.00;52.10;;;;;;5016529;28;20471;-88
2023/04/19 12:32:44;;;;;;;2.03;0.52;;;15.00;51.50;;;;;;5013442;28;20463;-88
2023/04/19 12:35:09;;;;;;;2.08;0.90;;;15.00;51.30;;;;;;5009253;28;20048;-87
2023/04/19 12:37:35;;;;;;;2.30;0.98;;;14.90;51.20;;;;;;5011346;28;20029;-89
2023/04/19 12:40:00;;;;;;;1.52;0.65;;;15.00;51.10;;;;;;5012178;28;20037;-87
2023/04/19 12:42:26;;;;;;;7.75;1.40;;;14.90;51.10;;;;;;5013539;28;20117;-88